Pagrindinis puslapis
METAR-TAF:

METAR-TAF

Oro uostai :

Trapanis, Italija

platuma: 37-55N, ilguma: 012-30E, Aukštis: 7 m

Dabartinis oras

Ataskaita buvo paskelbta 21 minutes, ne 22:55 UTC
Vėjas 6 kt iš Šiaurės/Šiaurės Vakarų
Temperatūra 23°C
Drėgmė 89%
Slėgis 1015 hPa
Matomumas 10 km arba daugiau
nėra debesų žemiau 1500 m ir nėra kamuolinių lietaus debesų

METAR: LICT 182255Z 33006KT CAVOK 23/21 Q1015 RMK SKC VIS MIN 9999 WIND THR13 02006KT BLU

Laikas: 01:16 (23:16 UTC)

Prognozė

Ataskaita buvo paskelbta 3 valandos ir 16 minutes, ne 20:00 UTC
Prognozė galioja nuo 18 metu 21 UTC su 19 metu 06 UTC
Vėjas 5 kt iš Šiaurės Rytų
Matomumas 10 km arba daugiau
nėra debesų žemiau 1500 m ir nėra kamuolinių lietaus debesų

TAF: LICT 182000Z 1821/1906 04005KT CAVOK

Orai ataskaitas ir orų prognozės (METAR, TAF).

turimą stotys yra geltonos ir raudonos taškus žemėlapyje.

Perkelti pele per norėdami pamatyti stoties vardą.

Tada spustelėkite, norėdami matyti oro stebėjimo ir prognozės.

Norėdami pakeisti žemėlapį: spustelėkite ant žalios mygtukų su juodo kryžiaus žemyn,; žalią mygtuką su brūkšneliu, jei norite nutolinti; arba žalių rodyklių gretimoms žemėlapius.


METAR-TAF: